• Join FlightAware (Why Join?)
  • Login
  • US Flag 
01:30AM EST


 

Airport Tracker/Info


-or-


 

Live Flight TrackerFlight Track Log ✈ FDX1989 ✈ 10-May-2013 ✈ KATL - KCLT

Flight Track Log - Related Links

Times and Time Zones

All times are in EDT time to prevent confusion due to time zone crossing. See the FDX1989 flight status page for this flight to view local times or setup timezone preferences in your user account.

Time Position Orientation Groundspeed Altitude Reporting Facility
EDT Latitude Longitude Course Direction KTS MPH feet Rate Location/Type
07:57AM 33.6470 -84.4290 273° West 143 165 1,700  Level FlightAware
07:58AM 33.6490 -84.4560 275° West 175 201 3,400 2,945 Climbing FlightAware
07:58AM 33.6540 -84.4860 281° West 247 284 4,400 3,382 Climbing FlightAware
07:58AM 33.6720 -84.5250 299° West 278 320 6,500 4,300 Climbing FlightAware
07:59AM 33.6910 -84.5660 299° West 291 335 8,700 3,491 Climbing FlightAware
07:59AM 33.7210 -84.5850 332° Northwest 307 353 9,700 2,200 Climbing FlightAware
07:59AM 33.7260 -84.5850 360° North 310 357 9,800 400 Climbing FlightAware
08:00AM 33.7570 -84.5710 21° North 322 371 9,900 171 Climbing FlightAware
08:00AM 33.7710 -84.5520 48° Northeast 363 418 9,900  Level FlightAware
08:00AM 33.7890 -84.5140 60° Northeast 386 444 9,900 257 Level FlightAware
08:01AM 33.8130 -84.4090 75° East 397 457 10,200 568 Climbing FlightAware
08:02AM 33.8130 -84.3110 90° East 404 465 10,800 918 Climbing FlightAware
08:03AM 33.7990 -84.2160 100° East 406 467 11,500 1,059 Climbing FlightAware
08:03AM 33.7760 -84.1220 106° East 411 473 12,300 2,329 Climbing FlightAware
08:04AM 33.7540 -84.0290 106° East 419 482 14,800 3,375 Climbing FlightAware
08:05AM 33.7320 -83.9370 106° East 441 507 16,800 3,247 Climbing FlightAware
08:05AM 33.7080 -83.8260 105° East 459 528 19,400 3,459 Climbing FlightAware
08:06AM 33.6970 -83.7400 99° East 462 532 21,700 3,741 Climbing FlightAware
08:07AM 33.6990 -83.6250 89° East 450 518 24,700 1,980 Climbing FlightAware
08:08AM 33.7270 -83.4810 77° East 436 502 25,000 189 Climbing FlightAware
08:08AM 33.7600 -83.3910 66° East 432 497 25,000  Level FlightAware
08:09AM 33.7960 -83.3040 64° Northeast 439 505 25,000  Level FlightAware
08:10AM 33.8350 -83.2070 64° Northeast 442 509 25,000  Level FlightAware
08:11AM 33.8710 -83.1200 63° Northeast 445 512 25,000  Level FlightAware
08:11AM 33.9120 -83.0150 65° Northeast 446 513 25,000  Level FlightAware
08:12AM 33.9470 -82.9280 64° Northeast 446 513 25,000  Level FlightAware
08:13AM 33.9840 -82.8360 64° Northeast 446 513 25,000  Level FlightAware
08:13AM 34.0200 -82.7460 64° Northeast 449 517 25,000  Level FlightAware
08:14AM 34.0580 -82.6510 64° Northeast 449 517 25,000  Level FlightAware
08:15AM 34.1100 -82.5200 64° Northeast 448 516 25,000  Level FlightAware
08:16AM 34.1450 -82.4280 65° Northeast 445 512 25,000  Level FlightAware
08:16AM 34.1840 -82.3290 65° Northeast 445 512 25,000  Level FlightAware
08:17AM 34.2200 -82.2400 64° Northeast 445 512 25,000 -141 Level FlightAware
08:18AM 34.2660 -82.1440 60° Northeast 435 501 24,800 -565 Descending FlightAware
08:18AM 34.3140 -82.0730 51° Northeast 413 475 24,200 -1,694 Descending FlightAware
08:19AM 34.3690 -82.0050 46° Northeast 401 461 22,400 -2,329 Descending FlightAware
08:20AM 34.4250 -81.9340 46° Northeast 396 456 20,900 -2,240 Descending FlightAware
08:20AM 34.4700 -81.8760 47° Northeast 392 451 19,600 -2,325 Descending FlightAware
08:21AM 34.5230 -81.8110 45° Northeast 388 447 17,800 -2,400 Descending FlightAware
08:22AM 34.5740 -81.7470 46° Northeast 382 440 16,200 -1,650 Descending FlightAware
08:23AM 34.6190 -81.6900 46° Northeast 379 436 15,600 -1,129 Descending FlightAware
08:23AM 34.6390 -81.6640 47° Northeast 375 432 14,600 -706 Descending FlightAware
08:24AM 34.6800 -81.6130 46° Northeast 375 432 14,600 -2,282 Level FlightAware
08:24AM 34.7411 -81.5339 46° Northeast 351 404 11,900 -752 Descending Atlanta Center
08:30AM 35.1070 -81.0670 46° Northeast 310 357 9,900 -351 Descending FlightAware
08:30AM 35.1270 -81.0600 16° North 300 345 9,800 -1,050 Descending FlightAware
08:31AM 35.1620 -81.0630 356° North 290 334 9,200 -1,091 Descending FlightAware
08:31AM 35.2020 -81.0670 355° North 277 319 8,800 -873 Descending FlightAware
08:32AM 35.2320 -81.0700 355° North 260 299 8,400 -1,636 Descending FlightAware
08:32AM 35.2680 -81.0730 356° North 253 291 7,300 -2,182 Descending FlightAware
08:33AM 35.2970 -81.0760 355° North 250 288 6,400 -2,100 Descending FlightAware
08:33AM 35.3130 -81.0770 357° North 245 282 5,900 -1,867 Descending FlightAware
08:33AM 35.3480 -81.0800 356° North 236 272 5,000 -1,527 Descending FlightAware
08:34AM 35.3710 -81.0820 356° North 233 268 4,500 -1,091 Descending FlightAware
08:34AM 35.4010 -81.0670 22° Northeast 226 260 4,000 -800 Descending FlightAware
08:35AM 35.4060 -81.0490 71° East 217 250 3,900 -533 Descending FlightAware
08:35AM 35.3980 -81.0160 107° East 198 228 3,600 -764 Descending FlightAware
08:36AM 35.3810 -80.9990 141° Southeast 194 223 3,200 -764 Descending FlightAware
08:36AM 35.3610 -80.9790 141° Southeast 184 212 2,900 -400 Descending FlightAware
08:36AM 35.3500 -80.9690 143° Southeast 183 211 2,900 -240 Level FlightAware
08:36AM 35.3430 -80.9630 145° Southeast 183 211 2,800 -600 Descending FlightAware
08:37AM 35.3350 -80.9620 174° South 180 207 2,700 -933 Descending FlightAware
08:37AM 35.3060 -80.9600 177° South 178 205 2,100 -873 Descending FlightAware
08:38AM 35.2910 -80.9590 177° South 163 188 1,900 -800 Descending FlightAware
08:38AM 35.2730 -80.9570 175° South 147 169 1,500 -732 Descending FlightAware
08:38AM 35.2603 -80.9586 175° South 141 162 1,400 -375 Descending Atlanta Center
08:40AM 35.2137 -80.9491 158° South  Level Estimated
08:47AM 35.2137 -80.9491 158° South  Level Estimated
08:48AM 35.2137 -80.9491 158° South  Level Estimated